Time;durP1;ratioP1;P1;durP2;ratioP2;P2;SDS_P1;SDS_P2;PMS_P1;PMS_P2;Temp;Humidity;BMP_temperature;BMP_pressure;BME280_temperature;BME280_humidity;BME280_pressure;Samples;Min_cycle;Max_cycle;Signal;HPM_P1;HPM_P2
2021/04/08 00:00:44;;;;;;;7.00;3.38;;;4.30;99.90;;;;;;5052876;28;20020;-88
2021/04/08 00:03:10;;;;;;;6.93;3.20;;;4.20;99.90;;;;;;5052793;28;20021;-87
2021/04/08 00:05:36;;;;;;;11.52;3.50;;;4.30;99.90;;;;;;5052580;28;20028;-87
2021/04/08 00:08:02;;;;;;;7.75;3.83;;;4.30;99.90;;;;;;5052697;28;20029;-87
2021/04/08 00:10:27;;;;;;;8.63;3.80;;;4.40;99.90;;;;;;5052646;28;20028;-87
2021/04/08 00:12:53;;;;;;;7.47;3.28;;;4.10;99.90;;;;;;5052616;28;20036;-87
2021/04/08 00:15:19;;;;;;;8.98;3.47;;;4.10;99.90;;;;;;5052792;28;20033;-87
2021/04/08 00:17:45;;;;;;;6.90;3.15;;;4.20;99.90;;;;;;5052669;28;20024;-87
2021/04/08 00:20:16;;;;;;;4.57;2.75;;;3.90;99.90;;;;;;5052551;28;20025;-87
2021/04/08 00:22:41;;;;;;;8.38;3.90;;;3.80;99.90;;;;;;5053853;28;20024;-87
2021/04/08 00:25:08;;;;;;;9.70;3.85;;;3.80;99.90;;;;;;5052362;28;20500;-87
2021/04/08 00:27:33;;;;;;;8.30;3.55;;;3.90;99.90;;;;;;5052297;28;20496;-87
2021/04/08 00:29:59;;;;;;;6.50;3.20;;;3.90;99.90;;;;;;5052466;28;20027;-87
2021/04/08 00:32:25;;;;;;;4.82;2.67;;;4.00;99.90;;;;;;5052348;28;20033;-86
2021/04/08 00:34:51;;;;;;;9.57;3.78;;;4.20;99.90;;;;;;5052212;28;20480;-87
2021/04/08 00:37:17;;;;;;;6.95;2.78;;;4.30;99.90;;;;;;5052189;28;20049;-87
2021/04/08 00:39:42;;;;;;;6.60;3.47;;;4.30;99.90;;;;;;5052248;28;20032;-87
2021/04/08 00:42:08;;;;;;;4.65;2.70;;;4.00;99.90;;;;;;5052159;28;20032;-87
2021/04/08 00:44:34;;;;;;;11.57;3.63;;;4.00;99.90;;;;;;5052066;28;20400;-88
2021/04/08 00:47:00;;;;;;;6.88;3.50;;;4.00;99.90;;;;;;5052284;28;20017;-88
2021/04/08 00:49:26;;;;;;;6.32;2.80;;;4.10;99.90;;;;;;5053079;28;20025;-88
2021/04/08 00:51:52;;;;;;;9.40;2.75;;;4.10;99.90;;;;;;5052024;28;20423;-87
2021/04/08 00:54:18;;;;;;;5.00;3.15;;;4.20;99.90;;;;;;5052277;28;20036;-87
2021/04/08 00:56:44;;;;;;;6.95;3.20;;;4.20;99.90;;;;;;5052065;28;20029;-88
2021/04/08 00:59:12;;;;;;;7.03;3.17;;;4.30;99.90;;;;;;5052030;28;20025;-87
2021/04/08 01:01:37;;;;;;;8.52;4.00;;;4.10;99.90;;;;;;5052202;28;20057;-87
2021/04/08 01:04:03;;;;;;;5.40;3.05;;;4.00;99.90;;;;;;5051989;28;20476;-87
2021/04/08 01:06:30;;;;;;;5.18;3.20;;;4.00;99.90;;;;;;5053357;28;20029;-87
2021/04/08 01:08:55;;;;;;;8.07;2.90;;;4.10;99.90;;;;;;5051954;28;20025;-87
2021/04/08 01:11:21;;;;;;;8.90;4.13;;;4.10;99.90;;;;;;5051977;28;20075;-87
2021/04/08 01:13:47;;;;;;;6.95;3.30;;;4.20;99.90;;;;;;5053560;28;20035;-87
2021/04/08 01:16:26;;;;;;;4.63;2.70;;;4.20;99.90;;;;;;5051866;28;20045;-87
2021/04/08 01:19:13;;;;;;;6.13;2.80;;;4.20;99.90;;;;;;5052012;28;20021;-87
2021/04/08 01:21:45;;;;;;;5.20;2.88;;;4.10;99.90;;;;;;5053172;28;20495;-87
2021/04/08 01:24:29;;;;;;;7.82;3.20;;;4.30;99.90;;;;;;5051895;28;20025;-87
2021/04/08 01:27:10;;;;;;;8.90;3.80;;;4.30;99.90;;;;;;5051864;28;20132;-87
2021/04/08 01:29:57;;;;;;;5.65;3.05;;;4.30;99.90;;;;;;5051838;28;20056;-87
2021/04/08 01:32:27;;;;;;;7.35;3.35;;;4.30;99.90;;;;;;5051787;28;20067;-87
2021/04/08 01:34:56;;;;;;;5.97;3.55;;;4.20;99.90;;;;;;5051753;28;20388;-87
2021/04/08 01:37:29;;;;;;;10.95;4.18;;;4.20;99.90;;;;;;5051593;28;20077;-88
2021/04/08 01:39:58;;;;;;;5.20;2.95;;;4.10;99.90;;;;;;5052990;28;20028;-87
2021/04/08 01:42:25;;;;;;;6.13;3.53;;;4.20;99.90;;;;;;5051926;28;20040;-87
2021/04/08 01:44:55;;;;;;;8.00;3.17;;;4.20;99.90;;;;;;5052795;28;20025;-87
2021/04/08 01:47:22;;;;;;;8.95;3.55;;;4.20;99.90;;;;;;5052909;28;20021;-87
2021/04/08 01:49:49;;;;;;;5.72;2.75;;;4.10;99.90;;;;;;5051502;28;20017;-87
2021/04/08 01:52:16;;;;;;;4.95;3.38;;;4.10;99.90;;;;;;5051573;28;20028;-87
2021/04/08 01:54:54;;;;;;;12.52;3.53;;;4.10;99.90;;;;;;5051517;28;20075;-87
2021/04/08 01:57:22;;;;;;;6.78;3.40;;;4.20;99.90;;;;;;5051575;28;20029;-87
2021/04/08 01:59:48;;;;;;;8.30;3.75;;;4.10;99.90;;;;;;5053127;28;20018;-87
2021/04/08 02:02:14;;;;;;;5.45;3.22;;;3.90;99.90;;;;;;5055109;28;20448;-87
2021/04/08 02:04:41;;;;;;;8.43;3.67;;;4.00;99.90;;;;;;5054801;28;20025;-87
2021/04/08 02:07:08;;;;;;;4.60;2.47;;;4.00;99.90;;;;;;5055029;28;20021;-87
2021/04/08 02:09:37;;;;;;;7.80;2.97;;;4.00;99.90;;;;;;5054934;28;20538;-87
2021/04/08 02:12:08;;;;;;;6.38;3.08;;;4.10;99.90;;;;;;5054922;28;20017;-87
2021/04/08 02:14:36;;;;;;;5.78;2.88;;;4.00;99.90;;;;;;5054959;28;20025;-87
2021/04/08 02:17:03;;;;;;;6.47;3.33;;;4.10;99.90;;;;;;5054729;28;20025;-87
2021/04/08 02:19:32;;;;;;;6.25;3.22;;;4.10;99.90;;;;;;5056400;28;20029;-87
2021/04/08 02:21:59;;;;;;;3.47;2.67;;;4.30;99.90;;;;;;5054715;28;20025;-87
2021/04/08 02:24:26;;;;;;;6.70;3.33;;;4.30;99.90;;;;;;5055850;28;20052;-87
2021/04/08 02:26:53;;;;;;;6.22;3.05;;;4.30;99.90;;;;;;5054628;28;20017;-87
2021/04/08 02:29:21;;;;;;;6.30;2.90;;;4.20;99.90;;;;;;5054565;28;20025;-86
2021/04/08 02:31:49;;;;;;;7.40;2.63;;;4.30;99.90;;;;;;5054553;28;20117;-87
2021/04/08 02:34:15;;;;;;;6.90;2.85;;;4.10;99.90;;;;;;5054533;28;20056;-87
2021/04/08 02:36:41;;;;;;;7.25;3.22;;;4.00;99.90;;;;;;5054200;28;20119;-87
2021/04/08 02:39:09;;;;;;;5.95;2.85;;;4.00;99.90;;;;;;5054490;28;20029;-87
2021/04/08 02:41:42;;;;;;;5.13;2.33;;;4.00;99.90;;;;;;5054456;28;20029;-87
2021/04/08 02:44:08;;;;;;;5.15;2.53;;;4.10;99.90;;;;;;5054323;28;20366;-86
2021/04/08 02:46:34;;;;;;;6.47;2.58;;;4.00;99.90;;;;;;5054227;28;20075;-87
2021/04/08 02:49:02;;;;;;;7.00;2.40;;;4.00;99.90;;;;;;5054865;28;20431;-87
2021/04/08 02:51:52;;;;;;;4.82;2.60;;;4.10;99.90;;;;;;5055519;28;20014;-87
2021/04/08 02:54:38;;;;;;;6.72;2.60;;;4.00;99.90;;;;;;5054206;28;20033;-87
2021/04/08 02:57:05;;;;;;;5.40;2.30;;;4.00;99.90;;;;;;5054100;28;20047;-87
2021/04/08 02:59:43;;;;;;;6.00;2.38;;;4.10;99.90;;;;;;5055300;28;20021;-87
2021/04/08 03:02:11;;;;;;;3.70;1.98;;;4.10;99.90;;;;;;5054147;28;20029;-88
2021/04/08 03:04:48;;;;;;;5.75;2.10;;;4.10;99.90;;;;;;5053841;28;20419;-87
2021/04/08 03:07:20;;;;;;;3.90;2.22;;;4.10;99.90;;;;;;5053898;28;20377;-87
2021/04/08 03:09:47;;;;;;;4.03;2.20;;;4.10;99.90;;;;;;5053789;28;20021;-87
2021/04/08 03:12:15;;;;;;;5.25;2.22;;;4.10;99.90;;;;;;5054726;28;20021;-87
2021/04/08 03:14:47;;;;;;;6.13;2.45;;;4.10;99.90;;;;;;5053734;28;20029;-87
2021/04/08 03:17:19;;;;;;;4.60;1.92;;;4.00;99.90;;;;;;5053615;28;20082;-87
2021/04/08 03:19:46;;;;;;;5.28;1.88;;;4.10;99.90;;;;;;5055119;28;20025;-87
2021/04/08 03:22:14;;;;;;;3.78;1.60;;;4.10;99.90;;;;;;5053618;28;20021;-87
2021/04/08 03:24:42;;;;;;;5.28;1.90;;;4.20;99.90;;;;;;5054673;28;20029;-87
2021/04/08 03:27:08;;;;;;;5.68;2.10;;;4.20;99.90;;;;;;5054739;28;20086;-87
2021/04/08 03:29:38;;;;;;;4.95;2.10;;;4.10;99.90;;;;;;5053368;28;20029;-87
2021/04/08 03:32:05;;;;;;;4.15;1.73;;;4.10;99.90;;;;;;5053431;28;20371;-88
2021/04/08 03:34:35;;;;;;;11.38;2.40;;;4.10;99.90;;;;;;5053439;28;20025;-88
2021/04/08 03:37:01;;;;;;;4.68;1.63;;;4.10;99.90;;;;;;5053219;28;20158;-87
2021/04/08 03:39:27;;;;;;;4.68;2.03;;;4.00;99.90;;;;;;5053216;28;20033;-87
2021/04/08 03:41:54;;;;;;;5.85;2.05;;;3.90;99.90;;;;;;5053211;28;20032;-87
2021/04/08 03:44:20;;;;;;;4.10;1.75;;;3.90;99.90;;;;;;5053056;28;20366;-87
2021/04/08 03:46:47;;;;;;;5.75;1.88;;;3.90;99.90;;;;;;5053007;28;20476;-87
2021/04/08 03:49:15;;;;;;;4.93;1.95;;;4.00;99.90;;;;;;5053035;28;20029;-87
2021/04/08 03:51:42;;;;;;;4.55;1.80;;;4.10;99.90;;;;;;5053272;28;20028;-87
2021/04/08 03:54:14;;;;;;;5.03;1.77;;;4.00;99.90;;;;;;5054236;28;20025;-87
2021/04/08 03:56:43;;;;;;;4.75;2.13;;;4.00;99.90;;;;;;5052889;28;20033;-87
2021/04/08 03:59:10;;;;;;;7.65;2.00;;;3.90;99.90;;;;;;5053760;28;20020;-87
2021/04/08 04:01:37;;;;;;;6.03;2.00;;;4.00;99.90;;;;;;5053016;28;20052;-87
2021/04/08 04:04:14;;;;;;;6.72;2.20;;;4.10;99.90;;;;;;5053452;28;20056;-87
2021/04/08 04:06:42;;;;;;;3.33;2.00;;;3.80;99.90;;;;;;5052841;28;20029;-87
2021/04/08 04:09:13;;;;;;;4.50;2.00;;;3.80;99.90;;;;;;5052869;28;20048;-87
2021/04/08 04:11:42;;;;;;;4.82;1.70;;;4.00;99.90;;;;;;5053062;28;20021;-87
2021/04/08 04:14:10;;;;;;;5.50;2.15;;;4.10;99.90;;;;;;5052655;28;20529;-87
2021/04/08 04:16:39;;;;;;;3.10;2.05;;;4.00;99.90;;;;;;5052531;28;20124;-87
2021/04/08 04:19:04;;;;;;;5.90;2.55;;;3.90;99.90;;;;;;5052584;28;20167;-87
2021/04/08 04:21:32;;;;;;;4.97;1.65;;;3.80;99.90;;;;;;5053782;28;20048;-87
2021/04/08 04:23:57;;;;;;;4.25;1.60;;;3.80;99.90;;;;;;5053034;28;20052;-87
2021/04/08 04:26:23;;;;;;;4.25;1.70;;;4.00;99.90;;;;;;5052572;28;20022;-87
2021/04/08 04:28:49;;;;;;;4.55;1.73;;;3.90;99.90;;;;;;5053960;28;20100;-87
2021/04/08 04:31:14;;;;;;;4.43;1.80;;;3.90;99.90;;;;;;5052420;28;20025;-87
2021/04/08 04:33:40;;;;;;;3.47;1.42;;;3.80;99.90;;;;;;5052325;28;20025;-87
2021/04/08 04:36:06;;;;;;;6.47;1.92;;;3.80;99.90;;;;;;5047131;28;20052;-87
2021/04/08 04:38:32;;;;;;;4.82;1.92;;;3.90;99.90;;;;;;5033577;28;20030;-87
2021/04/08 04:40:58;;;;;;;5.97;2.22;;;3.90;99.90;;;;;;5015909;28;20025;-87
2021/04/08 04:43:23;;;;;;;4.57;2.10;;;3.90;99.90;;;;;;5015943;28;20112;-87
2021/04/08 04:45:49;;;;;;;5.28;2.47;;;4.00;99.90;;;;;;5015778;28;20025;-87
2021/04/08 04:48:15;;;;;;;4.93;1.80;;;3.80;99.90;;;;;;5015793;28;20025;-87
2021/04/08 04:50:41;;;;;;;6.00;2.13;;;3.90;99.90;;;;;;5016019;28;20358;-87
2021/04/08 04:53:06;;;;;;;3.67;1.80;;;3.90;99.90;;;;;;5033941;28;20029;-87
2021/04/08 04:55:32;;;;;;;5.68;2.05;;;3.60;99.90;;;;;;5015691;28;20576;-87
2021/04/08 04:57:58;;;;;;;6.30;1.77;;;3.70;99.90;;;;;;5015800;28;20083;-87
2021/04/08 05:00:24;;;;;;;3.88;1.50;;;3.70;99.90;;;;;;5015798;28;20029;-87
2021/04/08 05:02:50;;;;;;;4.03;1.88;;;3.80;99.90;;;;;;5033399;28;20431;-87
2021/04/08 05:05:17;;;;;;;2.80;1.85;;;3.90;99.90;;;;;;5015621;28;20029;-87
2021/04/08 05:07:44;;;;;;;5.45;1.80;;;3.90;99.90;;;;;;5015715;28;20140;-88
2021/04/08 05:10:10;;;;;;;5.55;1.80;;;4.00;99.90;;;;;;5033537;28;20025;-88
2021/04/08 05:12:36;;;;;;;4.65;1.90;;;4.10;99.90;;;;;;5015714;28;20031;-88
2021/04/08 05:15:02;;;;;;;4.13;1.90;;;4.10;99.90;;;;;;5015651;28;20541;-88
2021/04/08 05:17:28;;;;;;;5.97;2.03;;;4.10;99.90;;;;;;5015675;28;20021;-88
2021/04/08 05:19:55;;;;;;;3.72;1.73;;;4.00;99.90;;;;;;5015600;28;20033;-88
2021/04/08 05:22:20;;;;;;;4.03;1.63;;;4.00;99.90;;;;;;5015549;28;20029;-87
2021/04/08 05:24:46;;;;;;;3.38;1.75;;;4.10;99.90;;;;;;5015549;28;20121;-88
2021/04/08 05:27:12;;;;;;;4.38;2.03;;;4.10;99.90;;;;;;5015577;28;20030;-88
2021/04/08 05:29:37;;;;;;;3.72;1.58;;;4.10;99.90;;;;;;5015625;28;20025;-88
2021/04/08 05:32:03;;;;;;;5.32;1.92;;;4.00;99.90;;;;;;5015547;28;20381;-88
2021/04/08 05:34:29;;;;;;;4.32;1.85;;;4.00;99.90;;;;;;5017058;28;20027;-89
2021/04/08 05:36:55;;;;;;;5.80;2.13;;;4.10;99.90;;;;;;5042084;28;20053;-88
2021/04/08 05:39:20;;;;;;;6.28;2.15;;;3.90;99.90;;;;;;5055670;28;20061;-88
2021/04/08 05:41:46;;;;;;;6.75;1.80;;;3.90;99.90;;;;;;5057322;28;20021;-89
2021/04/08 05:44:12;;;;;;;8.57;2.05;;;3.90;99.90;;;;;;5056508;28;20110;-88
2021/04/08 05:46:38;;;;;;;5.53;2.13;;;4.00;99.90;;;;;;5055460;28;20358;-88
2021/04/08 05:49:03;;;;;;;4.88;2.20;;;4.20;99.90;;;;;;5055334;28;20465;-88
2021/04/08 05:51:29;;;;;;;4.63;1.77;;;4.10;99.90;;;;;;5055331;28;20159;-87
2021/04/08 05:53:55;;;;;;;4.65;1.90;;;4.20;99.90;;;;;;5056595;28;20411;-87
2021/04/08 05:56:20;;;;;;;5.95;2.40;;;4.30;99.90;;;;;;5055266;28;20032;-87
2021/04/08 05:58:46;;;;;;;4.40;2.00;;;4.30;99.90;;;;;;5055414;28;20021;-87
2021/04/08 06:01:12;;;;;;;5.05;1.73;;;4.40;99.90;;;;;;5055432;28;20043;-88
2021/04/08 06:03:38;;;;;;;3.97;2.17;;;4.50;99.90;;;;;;5055275;28;20032;-88
2021/04/08 06:06:04;;;;;;;3.83;2.00;;;4.50;99.90;;;;;;5056296;28;20396;-88
2021/04/08 06:08:30;;;;;;;3.75;2.03;;;4.40;99.90;;;;;;5056354;28;20025;-88
2021/04/08 06:10:56;;;;;;;4.35;1.65;;;4.40;99.90;;;;;;5055191;28;20025;-88
2021/04/08 06:13:21;;;;;;;5.57;2.08;;;4.40;99.90;;;;;;5055171;28;20484;-88
2021/04/08 06:15:48;;;;;;;8.95;3.65;;;4.60;99.90;;;;;;5055328;28;20052;-88
2021/04/08 06:18:14;;;;;;;12.30;2.97;;;4.60;99.90;;;;;;5058791;28;20021;-88
2021/04/08 06:20:40;;;;;;;7.25;2.40;;;4.60;99.90;;;;;;5054975;28;20024;-88
2021/04/08 06:23:06;;;;;;;5.93;2.60;;;4.70;99.90;;;;;;5054989;28;20036;-89
2021/04/08 06:25:33;;;;;;;7.10;2.20;;;4.60;99.90;;;;;;5055115;28;20388;-91
2021/04/08 06:27:59;;;;;;;6.30;2.28;;;4.70;99.90;;;;;;5056926;28;20130;-90
2021/04/08 06:30:25;;;;;;;5.32;2.45;;;4.50;99.90;;;;;;5055699;28;20025;-90
2021/04/08 06:32:54;;;;;;;6.30;2.10;;;4.50;99.90;;;;;;5055547;28;20495;-89
2021/04/08 06:35:21;;;;;;;4.20;2.05;;;4.50;99.90;;;;;;5055129;28;20396;-89
2021/04/08 06:37:47;;;;;;;5.65;2.42;;;4.60;99.90;;;;;;5036534;28;20489;-91
2021/04/08 06:40:14;;;;;;;6.88;2.58;;;4.50;99.90;;;;;;5018976;28;20029;-90
2021/04/08 06:42:41;;;;;;;6.95;2.72;;;4.70;99.90;;;;;;5018914;28;20438;-91
2021/04/08 06:45:08;;;;;;;7.13;2.30;;;4.70;99.90;;;;;;5036708;28;20022;-90
2021/04/08 06:47:45;;;;;;;10.27;2.67;;;4.70;99.90;;;;;;5018420;28;20029;-90
2021/04/08 06:50:12;;;;;;;6.47;2.33;;;4.80;99.90;;;;;;5018767;28;20048;-90
2021/04/08 06:52:38;;;;;;;8.25;2.90;;;4.70;99.90;;;;;;5018875;28;20431;-91
2021/04/08 06:55:05;;;;;;;8.75;3.00;;;4.80;99.90;;;;;;5018718;28;20109;-89
2021/04/08 06:57:31;;;;;;;7.35;2.58;;;4.70;99.90;;;;;;5018427;28;20033;-90
2021/04/08 07:00:01;;;;;;;5.75;2.45;;;4.60;99.90;;;;;;5019269;28;20033;-91
2021/04/08 07:02:28;;;;;;;5.20;2.33;;;4.60;99.90;;;;;;5019294;28;20032;-91
2021/04/08 07:04:55;;;;;;;6.07;2.30;;;4.70;99.90;;;;;;5036881;28;20380;-91
2021/04/08 07:07:21;;;;;;;7.28;2.60;;;4.80;99.90;;;;;;5036400;28;20022;-91
2021/04/08 07:09:48;;;;;;;6.25;2.28;;;4.80;99.90;;;;;;5036145;28;20354;-90
2021/04/08 07:12:15;;;;;;;6.75;2.65;;;4.80;99.90;;;;;;5018660;28;20536;-91
2021/04/08 07:14:41;;;;;;;8.05;2.67;;;4.60;99.90;;;;;;5036319;28;20025;-91
2021/04/08 07:17:11;;;;;;;7.38;2.95;;;4.50;99.90;;;;;;5018328;28;20028;-90
2021/04/08 07:19:37;;;;;;;15.48;2.88;;;4.30;99.90;;;;;;5036245;28;20535;-90
2021/04/08 07:22:03;;;;;;;9.43;3.08;;;4.50;99.90;;;;;;5018450;28;20033;-91
2021/04/08 07:24:29;;;;;;;7.18;3.05;;;4.70;99.90;;;;;;5017815;28;20055;-91
2021/04/08 07:27:04;;;;;;;6.05;2.72;;;4.90;99.90;;;;;;5017694;28;20052;-90
2021/04/08 07:29:38;;;;;;;7.18;2.47;;;4.90;99.90;;;;;;5017728;28;20497;-90
2021/04/08 07:32:22;;;;;;;6.32;2.92;;;5.00;99.90;;;;;;5017489;28;20481;-90
2021/04/08 07:34:54;;;;;;;6.50;2.80;;;4.90;99.90;;;;;;5017424;28;20026;-90
2021/04/08 07:37:22;;;;;;;6.07;2.90;;;5.00;99.90;;;;;;5047130;28;20053;-90
2021/04/08 07:39:48;;;;;;;7.22;3.00;;;5.00;99.90;;;;;;5053631;28;20029;-89
2021/04/08 07:42:26;;;;;;;9.45;3.10;;;5.00;99.90;;;;;;5053815;28;20392;-90
2021/04/08 07:44:59;;;;;;;7.68;3.20;;;4.90;99.90;;;;;;5053735;28;20032;-90
2021/04/08 07:47:43;;;;;;;8.70;3.00;;;5.00;99.90;;;;;;5053739;28;20033;-89
2021/04/08 07:50:16;;;;;;;;;;;5.20;99.90;;;;;;5054076;28;20045;-90
2021/04/08 07:52:44;;;;;;;6.72;2.53;;;5.40;99.90;;;;;;5054686;28;19958;-89
2021/04/08 07:55:22;;;;;;;6.72;2.60;;;5.40;99.90;;;;;;5053650;28;20116;-90
2021/04/08 07:57:52;;;;;;;9.15;3.03;;;5.40;99.90;;;;;;5053610;28;20496;-91
2021/04/08 08:00:24;;;;;;;8.38;3.03;;;5.40;99.90;;;;;;5053148;28;20075;-90
2021/04/08 08:02:51;;;;;;;9.50;2.97;;;5.00;99.90;;;;;;5053090;28;20094;-88
2021/04/08 08:05:22;;;;;;;6.80;2.50;;;4.90;99.90;;;;;;5053035;28;20392;-90
2021/04/08 08:07:49;;;;;;;10.65;3.30;;;5.00;99.90;;;;;;5053012;28;20427;-89
2021/04/08 08:10:17;;;;;;;4.70;2.60;;;4.90;99.90;;;;;;5053008;28;20032;-89
2021/04/08 08:12:42;;;;;;;6.70;2.97;;;5.00;99.90;;;;;;5052894;28;20070;-87
2021/04/08 08:15:19;;;;;;;11.07;3.13;;;5.20;99.90;;;;;;5052739;28;20028;-88
2021/04/08 08:17:45;;;;;;;5.10;2.63;;;5.20;99.70;;;;;;5052783;28;20119;-90
2021/04/08 08:20:11;;;;;;;4.50;2.72;;;5.20;99.90;;;;;;5052832;28;20208;-89
2021/04/08 08:22:39;;;;;;;7.97;2.90;;;5.00;99.80;;;;;;5052858;28;20032;-90
2021/04/08 08:25:06;;;;;;;6.15;2.50;;;5.20;99.90;;;;;;5052519;28;20404;-90
2021/04/08 08:27:46;;;;;;;8.82;2.90;;;4.90;99.90;;;;;;5053645;28;20025;-89
2021/04/08 08:30:17;;;;;;;8.23;2.60;;;4.70;99.90;;;;;;5052657;28;20029;-87
2021/04/08 08:33:01;;;;;;;5.88;2.50;;;4.80;99.90;;;;;;5052493;28;20451;-87
2021/04/08 08:35:27;;;;;;;7.80;2.58;;;5.10;99.90;;;;;;5051167;28;20056;-87
2021/04/08 08:37:56;;;;;;;8.85;2.58;;;5.30;99.90;;;;;;5033994;28;20080;-86
2021/04/08 08:40:22;;;;;;;5.93;2.85;;;5.40;99.40;;;;;;5015956;28;20448;-86
2021/04/08 08:42:51;;;;;;;6.13;2.95;;;5.10;98.80;;;;;;5015935;28;20026;-87
2021/04/08 08:45:19;;;;;;;9.10;2.72;;;5.20;99.90;;;;;;5015730;28;20089;-88
2021/04/08 08:47:48;;;;;;;9.57;2.83;;;5.40;98.40;;;;;;5015614;28;20029;-87
2021/04/08 08:50:16;;;;;;;10.18;2.75;;;5.40;98.80;;;;;;5015757;28;20025;-88
2021/04/08 08:52:51;;;;;;;8.32;2.83;;;5.50;98.40;;;;;;5033534;28;20439;-87
2021/04/08 08:55:19;;;;;;;8.10;2.35;;;6.00;98.50;;;;;;5015755;28;20044;-87
2021/04/08 08:57:50;;;;;;;5.88;2.92;;;6.60;98.50;;;;;;5033426;28;20388;-89
2021/04/08 09:00:16;;;;;;;8.60;2.90;;;7.00;96.30;;;;;;5015895;28;20032;-86
2021/04/08 09:02:44;;;;;;;4.95;2.20;;;7.00;96.80;;;;;;5015681;28;20033;-89
2021/04/08 09:05:15;;;;;;;8.65;2.63;;;6.90;96.50;;;;;;5015578;28;20588;-89
2021/04/08 09:07:44;;;;;;;9.48;2.60;;;6.90;95.90;;;;;;5033332;28;20018;-88
2021/04/08 09:10:13;;;;;;;7.85;3.30;;;6.30;93.80;;;;;;5018391;28;20107;-87
2021/04/08 09:12:40;;;;;;;7.22;3.15;;;5.70;94.70;;;;;;5019708;28;20120;-88
2021/04/08 09:15:07;;;;;;;9.52;2.92;;;5.70;96.30;;;;;;5019501;28;20033;-89
2021/04/08 09:17:46;;;;;;;12.48;2.95;;;5.80;95.50;;;;;;5019534;28;20030;-89
2021/04/08 09:20:18;;;;;;;10.38;2.97;;;5.50;97.30;;;;;;5037377;28;20504;-90
2021/04/08 09:22:59;;;;;;;8.15;2.97;;;5.60;96.40;;;;;;5019606;28;20029;-87
2021/04/08 09:25:38;;;;;;;5.18;2.90;;;5.60;96.50;;;;;;5019455;28;20033;-88
2021/04/08 09:28:04;;;;;;;7.15;2.85;;;5.60;96.50;;;;;;5019397;28;20021;-87
2021/04/08 09:33:14;;;;;;;6.13;2.50;;;5.50;97.00;;;;;;5037150;28;20485;-89
2021/04/08 09:35:40;;;;;;;10.80;3.55;;;5.50;96.30;;;;;;5019349;28;20061;-87
2021/04/08 09:38:05;;;;;;;8.85;3.67;;;5.70;96.60;;;;;;5019249;28;20104;-87
2021/04/08 09:40:36;;;;;;;8.68;2.60;;;5.80;97.20;;;;;;5019414;28;20114;-87
2021/04/08 09:43:08;;;;;;;5.68;2.92;;;5.50;96.50;;;;;;5036835;28;20025;-86
2021/04/08 09:45:42;;;;;;;7.28;3.13;;;5.80;97.00;;;;;;5019012;28;20025;-88
2021/04/08 09:48:09;;;;;;;5.57;2.40;;;5.80;95.70;;;;;;5019138;28;20108;-89
2021/04/08 09:50:47;;;;;;;8.27;2.50;;;5.90;96.50;;;;;;5018861;28;20039;-88
2021/04/08 09:53:13;;;;;;;6.43;3.13;;;6.00;95.40;;;;;;5018926;28;20026;-86
2021/04/08 09:55:41;;;;;;;9.15;2.70;;;6.10;95.50;;;;;;5036626;28;20033;-89
2021/04/08 09:58:09;;;;;;;6.15;3.20;;;6.20;95.80;;;;;;5036649;28;20104;-88
2021/04/08 10:00:35;;;;;;;6.45;2.70;;;6.20;94.50;;;;;;5036632;28;20033;-89
2021/04/08 10:03:06;;;;;;;8.05;2.83;;;6.20;95.10;;;;;;5018646;28;20029;-88
2021/04/08 10:05:40;;;;;;;12.20;3.17;;;6.30;94.80;;;;;;5018920;28;20053;-88
2021/04/08 10:08:08;;;;;;;6.03;2.55;;;6.40;95.20;;;;;;5019081;28;20021;-89
2021/04/08 10:10:37;;;;;;;5.40;2.33;;;6.50;94.80;;;;;;5036478;28;20025;-89
2021/04/08 10:13:30;;;;;;;6.07;3.03;;;6.80;95.50;;;;;;5018591;28;20531;-89
2021/04/08 10:15:58;;;;;;;9.07;2.60;;;7.00;94.10;;;;;;5018477;28;20031;-89
2021/04/08 10:18:33;;;;;;;3.20;2.10;;;7.20;93.90;;;;;;5018708;28;20025;-87
2021/04/08 10:21:05;;;;;;;7.50;2.60;;;7.40;93.30;;;;;;5017416;28;20075;-89
2021/04/08 10:23:38;;;;;;;8.48;2.58;;;7.20;92.60;;;;;;5018365;28;20029;-88
2021/04/08 10:26:09;;;;;;;4.65;2.67;;;7.10;91.20;;;;;;5018236;28;20022;-87
2021/04/08 10:28:44;;;;;;;9.10;3.03;;;6.90;91.70;;;;;;5018378;28;20021;-89
2021/04/08 10:31:22;;;;;;;4.15;2.50;;;6.60;91.60;;;;;;5018283;28;20018;-88
2021/04/08 10:34:01;;;;;;;5.95;2.83;;;6.70;91.80;;;;;;5035861;28;20017;-88
2021/04/08 10:36:33;;;;;;;7.80;3.05;;;6.90;92.70;;;;;;5035668;28;20470;-87
2021/04/08 10:39:14;;;;;;;7.00;2.70;;;7.00;91.30;;;;;;5034524;28;20021;-86
2021/04/08 10:41:55;;;;;;;9.35;3.17;;;7.60;90.60;;;;;;5017954;28;20033;-87
2021/04/08 10:44:21;;;;;;;18.75;7.00;;;8.10;90.90;;;;;;5035667;28;20017;-87
2021/04/08 10:46:47;;;;;;;8.57;3.10;;;8.10;90.50;;;;;;5017763;28;20022;-86
2021/04/08 10:49:34;;;;;;;7.28;2.60;;;7.60;90.30;;;;;;5017767;28;20048;-86
2021/04/08 10:52:12;;;;;;;5.30;3.03;;;7.00;91.30;;;;;;5017886;28;20029;-87
2021/04/08 10:54:39;;;;;;;8.38;2.55;;;6.90;93.00;;;;;;5017683;28;20032;-84
2021/04/08 10:57:06;;;;;;;7.03;2.58;;;7.10;92.70;;;;;;5017634;28;20037;-89
2021/04/08 10:59:33;;;;;;;12.90;3.30;;;7.50;92.40;;;;;;5017539;28;20030;-88
2021/04/08 11:02:00;;;;;;;8.82;2.85;;;7.70;92.30;;;;;;5035404;28;20033;-86
2021/04/08 11:04:26;;;;;;;7.82;2.70;;;7.50;91.80;;;;;;5035268;28;20064;-86
2021/04/08 11:06:57;;;;;;;8.77;2.50;;;7.30;92.50;;;;;;5035340;28;20060;-87
2021/04/08 11:09:27;;;;;;;6.20;2.58;;;7.30;91.70;;;;;;5017541;28;20025;-87
2021/04/08 11:11:55;;;;;;;9.98;3.00;;;7.20;91.80;;;;;;5017510;28;20028;-87
2021/04/08 11:14:26;;;;;;;10.45;2.40;;;7.40;92.40;;;;;;5035127;28;20384;-86
2021/04/08 11:16:57;;;;;;;10.55;3.08;;;8.00;91.30;;;;;;5017387;28;20125;-86
2021/04/08 11:19:23;;;;;;;5.68;2.25;;;8.90;89.20;;;;;;5017251;28;20026;-88
2021/04/08 11:21:50;;;;;;;4.63;2.47;;;9.10;89.40;;;;;;5017624;28;20049;-88
2021/04/08 11:24:16;;;;;;;8.88;2.83;;;9.50;87.50;;;;;;5017111;28;20500;-86
2021/04/08 11:26:49;;;;;;;10.10;2.92;;;8.60;83.70;;;;;;5017279;28;20079;-87
2021/04/08 11:29:25;;;;;;;8.10;2.50;;;8.10;86.90;;;;;;5017360;28;20029;-86
2021/04/08 11:31:57;;;;;;;7.72;2.63;;;7.80;86.60;;;;;;5017107;28;20547;-87
2021/04/08 11:34:23;;;;;;;6.55;2.80;;;7.70;88.20;;;;;;5034860;28;20029;-86
2021/04/08 11:36:54;;;;;;;8.25;2.72;;;7.80;89.80;;;;;;5034853;28;20080;-84
2021/04/08 11:39:20;;;;;;;9.43;2.72;;;8.00;87.90;;;;;;5017368;28;20374;-87
2021/04/08 11:41:46;;;;;;;4.65;2.28;;;7.70;86.80;;;;;;5017388;28;20029;-87
2021/04/08 11:44:23;;;;;;;6.00;2.65;;;7.70;86.10;;;;;;5016830;28;20446;-86
2021/04/08 11:46:48;;;;;;;7.45;2.75;;;8.10;87.30;;;;;;5016881;28;20032;-86
2021/04/08 11:49:20;;;;;;;7.75;2.63;;;8.60;85.80;;;;;;5017058;28;20025;-87
2021/04/08 11:51:48;;;;;;;7.40;2.72;;;8.40;84.10;;;;;;5016829;28;20040;-86
2021/04/08 11:54:20;;;;;;;6.88;2.55;;;8.60;83.70;;;;;;5016693;28;20036;-87
2021/04/08 11:56:46;;;;;;;6.60;2.63;;;9.20;93.70;;;;;;5017517;28;20432;-85
2021/04/08 11:59:15;;;;;;;6.25;2.47;;;10.60;81.40;;;;;;5034215;28;20018;-87
2021/04/08 12:01:45;;;;;;;5.35;2.10;;;11.80;77.20;;;;;;5016504;28;20022;-86
2021/04/08 12:04:17;;;;;;;4.80;2.28;;;11.70;74.90;;;;;;5016334;28;20144;-86
2021/04/08 12:06:48;;;;;;;5.78;2.30;;;10.50;74.20;;;;;;5016404;28;20175;-87
2021/04/08 12:09:15;;;;;;;6.57;2.10;;;9.60;78.70;;;;;;5034237;28;20032;-87
2021/04/08 12:11:53;;;;;;;4.72;2.20;;;9.00;77.50;;;;;;5016475;28;20028;-87
2021/04/08 12:14:19;;;;;;;6.53;2.40;;;8.70;78.50;;;;;;5016287;28;20036;-85
2021/04/08 12:17:07;;;;;;;5.55;2.00;;;8.50;81.20;;;;;;5016330;28;20025;-86
2021/04/08 12:19:34;;;;;;;4.30;2.35;;;8.30;81.00;;;;;;5016200;28;20094;-88
2021/04/08 12:22:11;;;;;;;4.93;2.55;;;9.40;83.20;;;;;;5016080;28;20033;-88
2021/04/08 12:24:38;;;;;;;6.00;2.33;;;9.60;80.00;;;;;;5033815;28;20481;-86
2021/04/08 12:27:16;;;;;;;11.73;2.42;;;9.70;77.70;;;;;;5016073;28;20022;-88
2021/04/08 12:29:42;;;;;;;6.88;2.15;;;9.70;77.50;;;;;;5016152;28;20183;-87
2021/04/08 12:32:07;;;;;;;5.32;2.83;;;9.50;79.90;;;;;;5033786;28;20101;-88
2021/04/08 12:34:33;;;;;;;4.90;2.58;;;9.20;77.50;;;;;;5016000;28;20021;-87
2021/04/08 12:36:59;;;;;;;5.75;2.47;;;9.00;79.40;;;;;;5033757;28;20053;-86
2021/04/08 12:39:27;;;;;;;5.07;2.40;;;8.80;79.50;;;;;;5016094;28;20456;-87
2021/04/08 12:41:52;;;;;;;7.47;2.88;;;8.70;80.70;;;;;;5016186;28;20371;-87
2021/04/08 12:44:18;;;;;;;5.82;2.90;;;;;;;;;;5015573;28;20060;-88
2021/04/08 12:46:44;;;;;;;9.65;3.03;;;8.00;80.10;;;;;;5016244;28;20500;-88
2021/04/08 12:49:10;;;;;;;7.03;2.88;;;8.10;83.00;;;;;;5016243;28;20113;-87
2021/04/08 12:51:35;;;;;;;7.15;2.60;;;8.00;81.90;;;;;;5015977;28;20021;-88
2021/04/08 12:54:01;;;;;;;4.50;2.70;;;7.80;86.30;;;;;;5016470;28;20033;-88
2021/04/08 12:56:27;;;;;;;10.15;3.03;;;8.20;82.80;;;;;;5015873;28;20086;-87
2021/04/08 12:58:53;;;;;;;5.75;2.55;;;9.00;81.80;;;;;;5015786;28;20504;-88
2021/04/08 13:01:19;;;;;;;6.88;3.10;;;9.50;79.10;;;;;;5015680;28;20032;-88
2021/04/08 13:03:45;;;;;;;5.20;2.60;;;9.00;77.00;;;;;;5033962;28;20033;-89
2021/04/08 13:06:11;;;;;;;6.25;3.00;;;8.50;78.90;;;;;;5015817;28;20152;-88
2021/04/08 13:08:37;;;;;;;9.75;3.28;;;8.40;79.60;;;;;;5016741;28;20033;-85